Time;durP1;ratioP1;P1;durP2;ratioP2;P2;SDS_P1;SDS_P2;PMS_P1;PMS_P2;Temp;Humidity;BMP_temperature;BMP_pressure;BME280_temperature;BME280_humidity;BME280_pressure;Samples;Min_cycle;Max_cycle;Signal;HPM_P1;HPM_P2
2020/12/08 00:01:52;;;;;;;35.17;18.83;;;5.90;99.90;;;;;;5054274;28;20185;-83
2020/12/08 00:04:18;;;;;;;36.37;18.80;;;5.90;99.90;;;;;;5036266;28;20202;-82
2020/12/08 00:06:43;;;;;;;35.63;18.67;;;5.90;99.90;;;;;;5036107;28;20207;-83
2020/12/08 00:09:09;;;;;;;35.73;19.57;;;5.90;99.90;;;;;;5036046;28;20221;-83
2020/12/08 00:11:34;;;;;;;36.53;19.37;;;5.90;99.90;;;;;;5035685;28;20216;-83
2020/12/08 00:14:00;;;;;;;37.47;21.13;;;5.90;99.90;;;;;;5036284;28;20180;-82
2020/12/08 00:16:26;;;;;;;36.23;19.10;;;6.00;99.90;;;;;;5035907;28;20211;-83
2020/12/08 00:18:51;;;;;;;36.50;19.93;;;5.90;99.90;;;;;;5053872;28;20597;-82
2020/12/08 00:21:17;;;;;;;34.87;18.93;;;5.90;99.90;;;;;;5036172;28;20655;-83
2020/12/08 00:23:44;;;;;;;35.50;18.87;;;5.90;99.90;;;;;;5036177;28;20639;-84
2020/12/08 00:26:12;;;;;;;36.70;19.77;;;5.90;99.90;;;;;;5036215;28;20203;-83
2020/12/08 00:28:38;;;;;;;34.47;19.50;;;5.90;99.90;;;;;;5035419;28;20188;-82
2020/12/08 00:31:04;;;;;;;38.57;21.00;;;6.00;99.90;;;;;;5035704;28;20551;-82
2020/12/08 00:33:29;;;;;;;35.83;19.73;;;5.90;99.90;;;;;;5035468;28;20187;-83
2020/12/08 00:35:58;;;;;;;35.27;18.23;;;5.80;99.90;;;;;;5035155;28;20219;-83
2020/12/08 00:38:25;;;;;;;37.93;19.23;;;5.80;99.90;;;;;;5053142;28;20544;-80
2020/12/08 00:40:50;;;;;;;39.43;20.67;;;5.80;99.90;;;;;;5035554;28;20179;-82
2020/12/08 00:43:16;;;;;;;37.00;18.43;;;5.80;99.90;;;;;;5035586;28;20179;-82
2020/12/08 00:45:41;;;;;;;35.30;18.77;;;5.70;99.90;;;;;;5035866;28;20209;-83
2020/12/08 00:48:07;;;;;;;36.33;20.40;;;5.80;99.90;;;;;;5037772;28;20211;-82
2020/12/08 00:50:32;;;;;;;31.17;17.30;;;5.80;99.90;;;;;;5039735;28;20258;-82
2020/12/08 00:52:58;;;;;;;39.97;20.87;;;5.80;99.90;;;;;;5039491;28;20639;-83
2020/12/08 00:55:23;;;;;;;34.87;18.97;;;5.70;99.90;;;;;;5039604;28;20220;-86
2020/12/08 00:57:49;;;;;;;35.07;18.57;;;5.80;99.90;;;;;;5057156;28;20215;-82
2020/12/08 01:00:14;;;;;;;33.70;19.63;;;5.80;99.90;;;;;;5039932;28;20177;-84
2020/12/08 01:02:40;;;;;;;39.43;20.10;;;5.80;99.90;;;;;;5039868;28;20189;-83
2020/12/08 01:05:11;;;;;;;37.53;20.53;;;5.80;99.90;;;;;;5040390;28;20271;-82
2020/12/08 01:07:37;;;;;;;33.47;17.90;;;5.70;99.90;;;;;;5039568;28;20238;-84
2020/12/08 01:10:03;;;;;;;35.90;18.97;;;5.70;99.90;;;;;;5040182;28;20180;-82
2020/12/08 01:12:28;;;;;;;34.97;19.27;;;5.70;99.90;;;;;;5057640;28;20175;-83
2020/12/08 01:14:54;;;;;;;33.53;17.60;;;5.70;99.90;;;;;;5039828;28;20215;-82
2020/12/08 01:17:19;;;;;;;36.07;20.10;;;5.70;99.90;;;;;;5040179;28;20179;-82
2020/12/08 01:19:45;;;;;;;36.80;20.00;;;5.70;99.90;;;;;;5040015;28;20247;-81
2020/12/08 01:22:10;;;;;;;34.77;18.60;;;5.70;99.90;;;;;;5039588;28;20185;-83
2020/12/08 01:24:36;;;;;;;35.60;19.67;;;5.70;99.90;;;;;;5057768;28;20198;-82
2020/12/08 01:27:01;;;;;;;33.70;17.97;;;5.80;99.90;;;;;;5039512;28;20200;-82
2020/12/08 01:29:27;;;;;;;33.67;18.17;;;5.80;99.90;;;;;;5040340;28;20175;-83
2020/12/08 01:31:52;;;;;;;32.67;18.07;;;5.80;99.90;;;;;;5039880;28;20525;-83
2020/12/08 01:34:17;;;;;;;35.30;21.07;;;5.80;99.90;;;;;;5039342;28;20286;-84
2020/12/08 01:36:43;;;;;;;34.17;18.67;;;5.70;99.90;;;;;;5039094;28;20618;-82
2020/12/08 01:39:08;;;;;;;30.93;16.93;;;5.70;99.90;;;;;;5039343;28;20849;-84
2020/12/08 01:41:34;;;;;;;33.70;19.00;;;5.70;99.90;;;;;;5039171;28;20226;-82
2020/12/08 01:43:59;;;;;;;31.90;16.60;;;5.80;99.90;;;;;;5039907;28;20183;-83
2020/12/08 01:46:26;;;;;;;32.23;17.57;;;5.80;99.90;;;;;;5039147;28;20176;-83
2020/12/08 01:48:53;;;;;;;31.57;16.87;;;5.80;99.90;;;;;;5039590;28;20183;-82
2020/12/08 01:51:20;;;;;;;34.37;18.90;;;5.70;99.90;;;;;;5039467;28;20665;-83
2020/12/08 01:53:48;;;;;;;30.77;16.33;;;5.70;99.90;;;;;;5039497;28;20196;-83
2020/12/08 01:56:15;;;;;;;33.03;18.40;;;5.70;99.90;;;;;;5038709;28;20624;-83
2020/12/08 01:58:40;;;;;;;31.20;16.67;;;5.70;99.90;;;;;;5038207;28;20637;-81
2020/12/08 02:01:08;;;;;;;28.80;16.23;;;5.70;99.90;;;;;;5038371;28;20267;-83
2020/12/08 02:03:34;;;;;;;30.77;16.70;;;5.80;99.90;;;;;;5038575;28;20184;-82
2020/12/08 02:05:59;;;;;;;30.47;16.53;;;5.80;99.90;;;;;;5038469;28;20291;-83
2020/12/08 02:08:29;;;;;;;27.43;15.47;;;5.70;99.90;;;;;;5038294;28;20642;-84
2020/12/08 02:10:55;;;;;;;31.23;17.90;;;5.80;99.90;;;;;;5038981;28;20217;-82
2020/12/08 02:13:21;;;;;;;28.40;16.00;;;5.80;99.90;;;;;;5038583;28;20183;-81
2020/12/08 02:15:47;;;;;;;30.80;17.83;;;5.80;99.90;;;;;;5037990;28;20697;-83
2020/12/08 02:18:13;;;;;;;28.97;16.73;;;5.80;99.90;;;;;;5038342;28;20572;-84
2020/12/08 02:20:39;;;;;;;29.90;17.33;;;5.70;99.90;;;;;;5038341;28;20272;-82
2020/12/08 02:23:04;;;;;;;27.17;15.87;;;5.80;99.90;;;;;;5055433;28;20298;-84
2020/12/08 02:25:30;;;;;;;30.63;16.63;;;5.80;99.90;;;;;;5038079;28;20199;-83
2020/12/08 02:27:55;;;;;;;26.70;14.57;;;5.80;99.90;;;;;;5038087;28;20272;-82
2020/12/08 02:30:21;;;;;;;25.67;14.80;;;5.80;99.90;;;;;;5055418;28;20215;-83
2020/12/08 02:32:46;;;;;;;27.27;15.93;;;5.80;99.90;;;;;;5038138;28;20269;-83
2020/12/08 02:35:12;;;;;;;29.27;16.13;;;5.80;99.90;;;;;;5037977;28;20611;-84
2020/12/08 02:37:38;;;;;;;29.47;15.60;;;5.80;99.90;;;;;;5037412;28;20180;-84
2020/12/08 02:40:05;;;;;;;30.77;15.87;;;5.80;99.90;;;;;;5037532;28;20172;-83
2020/12/08 02:42:30;;;;;;;29.53;15.97;;;5.70;99.90;;;;;;5037441;28;20181;-84
2020/12/08 02:44:57;;;;;;;26.60;15.40;;;5.70;99.90;;;;;;5055439;28;20208;-82
2020/12/08 02:47:22;;;;;;;28.13;15.27;;;5.70;99.90;;;;;;5037073;28;20180;-83
2020/12/08 02:49:48;;;;;;;26.43;14.50;;;5.80;99.90;;;;;;5037288;28;20183;-83
2020/12/08 02:52:13;;;;;;;24.87;14.20;;;5.80;99.90;;;;;;5037088;28;20179;-83
2020/12/08 02:54:39;;;;;;;26.03;14.80;;;5.80;99.90;;;;;;5037315;28;20651;-83
2020/12/08 02:57:07;;;;;;;24.60;13.93;;;5.80;99.90;;;;;;5036900;28;20216;-84
2020/12/08 02:59:36;;;;;;;24.03;13.90;;;5.90;99.90;;;;;;5037206;28;20179;-84
2020/12/08 03:02:02;;;;;;;24.97;13.70;;;5.90;99.90;;;;;;5037029;28;20167;-83
2020/12/08 03:04:27;;;;;;;28.53;14.97;;;5.80;99.90;;;;;;5054851;28;20290;-84
2020/12/08 03:06:53;;;;;;;27.13;14.70;;;5.80;99.90;;;;;;5036765;28;20183;-83
2020/12/08 03:09:18;;;;;;;25.90;14.13;;;5.70;99.90;;;;;;5036841;28;20185;-84
2020/12/08 03:11:44;;;;;;;25.67;13.27;;;5.80;99.90;;;;;;5036859;28;20197;-82
2020/12/08 03:14:10;;;;;;;25.17;14.23;;;5.80;99.90;;;;;;5055143;28;20620;-83
2020/12/08 03:16:36;;;;;;;25.97;14.80;;;5.90;99.90;;;;;;5037028;28;20297;-82
2020/12/08 03:19:02;;;;;;;25.83;14.70;;;5.80;99.90;;;;;;5036664;28;20640;-83
2020/12/08 03:21:35;;;;;;;24.57;13.70;;;5.80;99.90;;;;;;5036758;28;20220;-84
2020/12/08 03:24:00;;;;;;;25.20;12.93;;;5.70;99.90;;;;;;5037224;28;20175;-82
2020/12/08 03:26:26;;;;;;;24.97;13.87;;;5.80;99.90;;;;;;5036857;28;20177;-83
2020/12/08 03:28:52;;;;;;;25.17;14.23;;;5.70;99.90;;;;;;5037621;28;20206;-84
2020/12/08 03:31:18;;;;;;;24.53;14.13;;;5.70;99.90;;;;;;5036923;28;20198;-84
2020/12/08 03:33:43;;;;;;;24.37;13.23;;;5.70;99.90;;;;;;5037616;28;20188;-83
2020/12/08 03:36:20;;;;;;;27.60;14.67;;;5.70;99.90;;;;;;5036911;28;20215;-81
2020/12/08 03:38:47;;;;;;;25.93;13.63;;;5.70;99.90;;;;;;5036491;28;20525;-83
2020/12/08 03:41:20;;;;;;;24.20;13.63;;;5.70;99.90;;;;;;5054680;28;20251;-84
2020/12/08 03:43:46;;;;;;;22.67;13.33;;;5.80;99.90;;;;;;5037351;28;20275;-83
2020/12/08 03:46:25;;;;;;;22.20;13.33;;;5.80;99.90;;;;;;5036587;28;20235;-84
2020/12/08 03:48:51;;;;;;;25.00;13.90;;;5.80;99.90;;;;;;5054878;28;20183;-82
2020/12/08 03:51:18;;;;;;;23.90;13.77;;;5.80;99.90;;;;;;5054795;28;20204;-84
2020/12/08 03:53:44;;;;;;;22.03;13.13;;;5.70;99.90;;;;;;5054672;28;20177;-83
2020/12/08 03:56:20;;;;;;;24.67;12.07;;;5.70;99.90;;;;;;5036034;28;20208;-84
2020/12/08 03:58:46;;;;;;;24.87;13.77;;;5.80;99.90;;;;;;5036927;28;20202;-83
2020/12/08 04:01:20;;;;;;;22.77;13.20;;;5.80;99.90;;;;;;5036175;28;20177;-84
2020/12/08 04:03:47;;;;;;;22.80;12.80;;;5.80;99.90;;;;;;5036110;28;20178;-82
2020/12/08 04:06:13;;;;;;;22.27;12.50;;;5.80;99.90;;;;;;5035770;28;20197;-84
2020/12/08 04:08:43;;;;;;;23.87;12.97;;;5.80;99.90;;;;;;5036464;28;20210;-84
2020/12/08 04:11:13;;;;;;;22.43;13.23;;;5.80;99.90;;;;;;5035889;28;20529;-83
2020/12/08 04:13:38;;;;;;;22.07;12.53;;;5.80;99.90;;;;;;5036140;28;20185;-84
2020/12/08 04:16:04;;;;;;;23.20;13.00;;;5.70;99.90;;;;;;5035724;28;20211;-82
2020/12/08 04:18:30;;;;;;;19.97;12.13;;;5.80;99.90;;;;;;5035919;28;20179;-86
2020/12/08 04:20:55;;;;;;;23.13;12.70;;;5.70;99.90;;;;;;5036039;28;20522;-84
2020/12/08 04:23:22;;;;;;;22.53;13.57;;;5.70;99.90;;;;;;5035293;28;20321;-83
2020/12/08 04:25:49;;;;;;;21.83;12.63;;;5.70;99.90;;;;;;5053545;28;20227;-84
2020/12/08 04:28:15;;;;;;;21.23;11.77;;;5.80;99.90;;;;;;5035982;28;20189;-84
2020/12/08 04:30:40;;;;;;;20.63;12.10;;;5.70;99.90;;;;;;5054037;28;20171;-82
2020/12/08 04:33:07;;;;;;;20.37;11.90;;;5.80;99.90;;;;;;5036100;28;20178;-83
2020/12/08 04:35:33;;;;;;;19.60;11.83;;;5.80;99.90;;;;;;5035526;28;20204;-83
2020/12/08 04:37:59;;;;;;;20.17;11.73;;;5.70;99.90;;;;;;5034736;28;20241;-83
2020/12/08 04:40:24;;;;;;;21.93;12.60;;;5.70;99.90;;;;;;5035543;28;20175;-81
2020/12/08 04:42:54;;;;;;;22.00;12.67;;;5.70;99.90;;;;;;5035962;28;20637;-83
2020/12/08 04:45:20;;;;;;;20.27;11.60;;;5.80;99.90;;;;;;5035584;28;20700;-84
2020/12/08 04:47:46;;;;;;;22.70;12.07;;;5.80;99.90;;;;;;5035771;28;20179;-84
2020/12/08 04:50:13;;;;;;;21.77;12.30;;;5.70;99.90;;;;;;5035875;28;20174;-83
2020/12/08 04:52:40;;;;;;;23.77;13.23;;;5.70;99.90;;;;;;5053676;28;20648;-83
2020/12/08 04:55:06;;;;;;;21.07;12.37;;;5.70;99.90;;;;;;5055464;28;20294;-84
2020/12/08 04:57:32;;;;;;;20.47;11.57;;;5.60;99.90;;;;;;5059937;28;20263;-84
2020/12/08 05:00:03;;;;;;;20.80;12.63;;;5.70;99.90;;;;;;5035701;28;20592;-85
2020/12/08 05:02:29;;;;;;;20.07;12.07;;;5.70;99.90;;;;;;5050578;28;20542;-85
2020/12/08 05:04:55;;;;;;;17.20;10.73;;;5.70;99.90;;;;;;5055199;28;20191;-84
2020/12/08 05:07:26;;;;;;;17.40;10.47;;;5.70;99.90;;;;;;5058999;28;20183;-85
2020/12/08 05:09:52;;;;;;;20.73;11.13;;;5.70;99.90;;;;;;5035906;28;20223;-85
2020/12/08 05:12:24;;;;;;;21.93;11.93;;;5.70;99.90;;;;;;5047657;28;20179;-85
2020/12/08 05:14:51;;;;;;;23.53;12.03;;;5.70;99.90;;;;;;5035690;28;20211;-85
2020/12/08 05:17:21;;;;;;;22.30;11.50;;;5.70;99.90;;;;;;5052995;28;20180;-84
2020/12/08 05:19:48;;;;;;;21.17;11.43;;;5.70;99.90;;;;;;5055925;28;20181;-85
2020/12/08 05:22:13;;;;;;;21.63;11.70;;;5.70;99.90;;;;;;5038767;28;20182;-85
2020/12/08 05:24:39;;;;;;;17.47;10.23;;;5.70;99.90;;;;;;5036008;28;20200;-85
2020/12/08 05:27:05;;;;;;;21.93;11.77;;;5.60;99.90;;;;;;5038146;28;20184;-84
2020/12/08 05:29:33;;;;;;;19.63;10.67;;;5.60;99.90;;;;;;5057939;28;20175;-85
2020/12/08 05:32:29;;;;;;;19.40;11.10;;;5.70;99.90;;;;;;5038340;28;20188;-85
2020/12/08 05:34:55;;;;;;;18.93;9.90;;;5.70;99.90;;;;;;5037950;28;20231;-84
2020/12/08 05:37:21;;;;;;;21.97;11.80;;;5.70;99.90;;;;;;5039504;28;20179;-85
2020/12/08 05:39:47;;;;;;;20.27;11.40;;;5.70;99.90;;;;;;5038851;28;20195;-86
2020/12/08 05:42:18;;;;;;;21.80;10.87;;;5.70;99.90;;;;;;5038535;28;20175;-85
2020/12/08 05:44:49;;;;;;;18.80;10.53;;;5.70;99.90;;;;;;5038354;28;20201;-85
2020/12/08 05:47:20;;;;;;;19.50;10.67;;;5.70;99.90;;;;;;5038364;28;20178;-84
2020/12/08 05:49:46;;;;;;;22.03;11.90;;;5.70;99.90;;;;;;5038076;28;20180;-84
2020/12/08 05:52:17;;;;;;;18.00;10.87;;;5.70;99.90;;;;;;5038338;28;20713;-85
2020/12/08 05:54:42;;;;;;;22.10;11.50;;;5.70;99.90;;;;;;5038314;28;20203;-84
2020/12/08 05:57:15;;;;;;;20.40;11.00;;;5.70;99.90;;;;;;5037896;28;20617;-84
2020/12/08 05:59:41;;;;;;;18.20;10.17;;;5.80;99.90;;;;;;5055624;28;20183;-84
2020/12/08 06:02:07;;;;;;;19.00;10.80;;;5.70;99.90;;;;;;5058120;28;20176;-84
2020/12/08 06:04:42;;;;;;;18.60;10.97;;;5.70;99.90;;;;;;5057918;28;20293;-85
2020/12/08 06:07:08;;;;;;;19.63;11.03;;;5.70;99.90;;;;;;5058001;28;20200;-84
2020/12/08 06:09:34;;;;;;;18.93;10.63;;;5.70;99.90;;;;;;5057300;28;20278;-83
2020/12/08 06:12:14;;;;;;;18.87;10.80;;;5.80;99.90;;;;;;5075700;28;20166;-84
2020/12/08 06:14:40;;;;;;;19.57;10.40;;;5.80;99.90;;;;;;5057978;28;20289;-84
2020/12/08 06:17:07;;;;;;;19.03;10.60;;;5.80;99.90;;;;;;5057523;28;20284;-84
2020/12/08 06:19:34;;;;;;;17.13;10.63;;;5.80;99.90;;;;;;5057768;28;20179;-84
2020/12/08 06:22:09;;;;;;;20.07;10.67;;;5.80;99.90;;;;;;5076024;28;20173;-84
2020/12/08 06:24:35;;;;;;;18.73;10.80;;;5.80;99.90;;;;;;5057642;28;20196;-84
2020/12/08 06:27:00;;;;;;;18.07;10.17;;;5.80;99.90;;;;;;5057320;28;20675;-84
2020/12/08 06:29:26;;;;;;;18.77;10.33;;;5.70;99.90;;;;;;5057921;28;20206;-84
2020/12/08 06:31:52;;;;;;;19.10;10.10;;;5.60;99.90;;;;;;5075592;28;20175;-85
2020/12/08 06:34:21;;;;;;;19.50;10.37;;;5.70;99.90;;;;;;5057094;28;20202;-84
2020/12/08 06:36:46;;;;;;;20.03;10.83;;;5.70;99.90;;;;;;5056833;28;20662;-84
2020/12/08 06:39:13;;;;;;;20.23;10.93;;;5.70;99.90;;;;;;5057394;28;20179;-84
2020/12/08 06:41:40;;;;;;;18.43;10.80;;;5.70;99.90;;;;;;5057420;28;20538;-84
2020/12/08 06:44:12;;;;;;;18.87;9.87;;;5.70;99.90;;;;;;5057124;28;20196;-83
2020/12/08 06:46:38;;;;;;;16.77;9.83;;;5.70;99.90;;;;;;5074573;28;20186;-83
2020/12/08 06:49:08;;;;;;;17.70;9.67;;;5.70;99.90;;;;;;5057324;28;20175;-83
2020/12/08 06:51:35;;;;;;;17.53;9.50;;;5.70;99.90;;;;;;5075293;28;20174;-83
2020/12/08 06:54:14;;;;;;;19.67;11.17;;;5.80;99.90;;;;;;5057240;28;20172;-83
2020/12/08 06:56:40;;;;;;;19.23;9.97;;;5.70;99.90;;;;;;5057030;28;20190;-83
2020/12/08 06:59:06;;;;;;;18.13;10.03;;;5.70;99.90;;;;;;5057301;28;20284;-84
2020/12/08 07:01:31;;;;;;;18.40;10.50;;;5.70;99.90;;;;;;5057390;28;20212;-83
2020/12/08 07:03:57;;;;;;;17.77;9.87;;;5.70;99.90;;;;;;5049701;28;20182;-83
2020/12/08 07:06:25;;;;;;;19.03;10.90;;;5.70;99.90;;;;;;5057624;28;20179;-84
2020/12/08 07:08:52;;;;;;;18.63;10.10;;;5.70;99.90;;;;;;5057319;28;20181;-84
2020/12/08 07:11:19;;;;;;;17.97;10.50;;;5.70;99.90;;;;;;5056802;28;20171;-83
2020/12/08 07:13:59;;;;;;;18.87;10.40;;;5.70;99.90;;;;;;5057119;28;20201;-83
2020/12/08 07:16:27;;;;;;;17.20;9.60;;;5.70;99.90;;;;;;5041720;28;20719;-84
2020/12/08 07:18:54;;;;;;;18.17;9.93;;;5.70;99.90;;;;;;5063091;28;20250;-84
2020/12/08 07:21:20;;;;;;;17.83;9.83;;;5.70;99.90;;;;;;5057233;28;20171;-85
2020/12/08 07:23:47;;;;;;;17.27;9.70;;;5.70;99.90;;;;;;5056738;28;20176;-84
2020/12/08 07:26:15;;;;;;;17.53;9.80;;;5.70;99.90;;;;;;5041368;28;20207;-84
2020/12/08 07:28:40;;;;;;;19.47;10.27;;;5.70;99.90;;;;;;5036648;28;20199;-84
2020/12/08 07:31:17;;;;;;;18.83;10.63;;;5.70;99.90;;;;;;5038966;28;20179;-85
2020/12/08 07:33:42;;;;;;;17.43;9.00;;;5.70;99.90;;;;;;5056238;28;20179;-85
2020/12/08 07:36:19;;;;;;;16.63;9.63;;;5.80;99.90;;;;;;5056117;28;20736;-84
2020/12/08 07:38:44;;;;;;;17.10;9.57;;;5.70;99.90;;;;;;5056260;28;20163;-83
2020/12/08 07:41:21;;;;;;;18.37;9.73;;;5.70;99.90;;;;;;5056530;28;20232;-84
2020/12/08 07:43:46;;;;;;;17.80;10.00;;;5.70;99.90;;;;;;5055947;28;20257;-83
2020/12/08 07:46:12;;;;;;;15.80;9.70;;;5.70;99.90;;;;;;5055674;28;20194;-84
2020/12/08 07:48:37;;;;;;;17.53;9.23;;;5.70;99.90;;;;;;5043713;28;20187;-84
2020/12/08 07:51:03;;;;;;;18.03;9.40;;;5.60;99.90;;;;;;5054063;28;20226;-83
2020/12/08 07:53:36;;;;;;;16.77;9.57;;;5.70;99.90;;;;;;5048936;28;20445;-84
2020/12/08 07:56:02;;;;;;;18.23;9.93;;;5.70;99.90;;;;;;5049444;28;20240;-84
2020/12/08 07:58:28;;;;;;;17.30;9.93;;;5.80;99.90;;;;;;5035203;28;20455;-83
2020/12/08 08:00:53;;;;;;;15.47;9.20;;;5.70;99.90;;;;;;5042526;28;20198;-83
2020/12/08 08:03:19;;;;;;;16.57;9.13;;;5.70;99.90;;;;;;5042838;28;20270;-84
2020/12/08 08:05:44;;;;;;;15.80;9.67;;;5.80;99.90;;;;;;5035898;28;20707;-84
2020/12/08 08:08:09;;;;;;;16.17;9.33;;;5.70;99.90;;;;;;5035603;28;20180;-84
2020/12/08 08:10:35;;;;;;;18.67;9.80;;;5.70;99.90;;;;;;5035630;28;20184;-83
2020/12/08 08:13:00;;;;;;;15.83;9.13;;;5.70;99.90;;;;;;5035947;28;20271;-85
2020/12/08 08:15:26;;;;;;;17.93;9.70;;;5.70;99.90;;;;;;5035391;28;20217;-84
2020/12/08 08:17:52;;;;;;;17.50;10.13;;;5.70;99.90;;;;;;5053507;28;20189;-84
2020/12/08 08:20:18;;;;;;;17.37;9.97;;;5.70;99.90;;;;;;5053435;28;20171;-86
2020/12/08 08:22:43;;;;;;;22.93;11.53;;;5.70;99.90;;;;;;5035949;28;20177;-84
2020/12/08 08:25:09;;;;;;;21.53;10.30;;;5.70;99.90;;;;;;5035647;28;20198;-84
2020/12/08 08:27:34;;;;;;;19.50;10.60;;;5.70;99.90;;;;;;5035612;28;20195;-85
2020/12/08 08:30:00;;;;;;;17.03;9.63;;;5.70;99.90;;;;;;5050464;28;20237;-84
2020/12/08 08:32:25;;;;;;;16.67;9.73;;;5.80;99.90;;;;;;5073800;28;20179;-84
2020/12/08 08:34:51;;;;;;;16.13;8.97;;;5.70;99.90;;;;;;5055469;28;20198;-84
2020/12/08 08:37:17;;;;;;;17.00;9.33;;;5.80;99.90;;;;;;5055330;28;20300;-85
2020/12/08 08:39:42;;;;;;;16.47;9.13;;;5.80;99.90;;;;;;5073205;28;20260;-84
2020/12/08 08:42:08;;;;;;;14.43;8.10;;;5.80;99.90;;;;;;5065133;28;20190;-84
2020/12/08 08:44:33;;;;;;;15.37;8.93;;;5.80;99.90;;;;;;5035197;28;20255;-84
2020/12/08 08:46:59;;;;;;;15.63;8.93;;;5.80;99.90;;;;;;5035193;28;20171;-83
2020/12/08 08:49:24;;;;;;;15.43;8.80;;;5.90;99.90;;;;;;5061612;28;20207;-84
2020/12/08 08:51:50;;;;;;;15.83;9.27;;;5.80;99.90;;;;;;5047359;28;20179;-84
2020/12/08 08:54:17;;;;;;;16.97;8.97;;;5.80;99.90;;;;;;5034969;28;20204;-84
2020/12/08 08:56:43;;;;;;;16.30;8.67;;;5.90;99.90;;;;;;5034774;28;20296;-84
2020/12/08 08:59:10;;;;;;;13.90;7.83;;;5.80;99.90;;;;;;5035040;28;20215;-84
2020/12/08 09:01:36;;;;;;;16.17;9.50;;;5.90;99.90;;;;;;5052579;28;20179;-84
2020/12/08 09:04:02;;;;;;;15.13;8.67;;;5.90;99.90;;;;;;5052535;28;20544;-83
2020/12/08 09:06:28;;;;;;;14.70;8.20;;;5.90;99.90;;;;;;5038168;28;20597;-84
2020/12/08 09:08:54;;;;;;;13.97;8.47;;;5.90;99.90;;;;;;5056386;28;20179;-83
2020/12/08 09:11:20;;;;;;;15.47;8.90;;;5.90;99.90;;;;;;5058281;28;20632;-83
2020/12/08 09:13:45;;;;;;;16.63;9.07;;;5.90;99.90;;;;;;5058953;28;20181;-84
2020/12/08 09:16:12;;;;;;;15.33;9.07;;;6.00;99.90;;;;;;5058074;28;20684;-84
2020/12/08 09:18:37;;;;;;;14.53;8.90;;;5.90;99.90;;;;;;5058685;28;20174;-84
2020/12/08 09:21:03;;;;;;;17.97;9.73;;;6.00;99.90;;;;;;5058479;28;20169;-83
2020/12/08 09:23:29;;;;;;;15.73;8.90;;;6.00;99.90;;;;;;5076409;28;20171;-84
2020/12/08 09:25:56;;;;;;;16.40;9.50;;;5.90;99.90;;;;;;5057969;28;20199;-83
2020/12/08 09:28:22;;;;;;;15.50;8.77;;;5.90;99.90;;;;;;5048721;28;20182;-83
2020/12/08 09:30:48;;;;;;;15.07;9.07;;;6.00;99.90;;;;;;5038556;28;20216;-84
2020/12/08 09:33:14;;;;;;;16.50;9.43;;;6.10;99.90;;;;;;5038395;28;20209;-82
2020/12/08 09:35:40;;;;;;;16.47;9.00;;;6.20;99.90;;;;;;5038229;28;20208;-84
2020/12/08 09:38:05;;;;;;;16.10;9.20;;;6.20;99.90;;;;;;5038865;28;20179;-84
2020/12/08 09:40:31;;;;;;;15.30;8.70;;;6.20;99.90;;;;;;5056035;28;20173;-83
2020/12/08 09:42:57;;;;;;;16.03;9.37;;;6.20;99.90;;;;;;5038567;28;20183;-84
2020/12/08 09:45:22;;;;;;;16.40;9.83;;;6.30;99.90;;;;;;5038058;28;20587;-84
2020/12/08 09:47:48;;;;;;;16.03;10.30;;;6.40;99.90;;;;;;5038766;28;20240;-85
2020/12/08 09:50:14;;;;;;;18.73;10.10;;;6.30;99.90;;;;;;5038314;28;20879;-84
2020/12/08 09:52:40;;;;;;;16.63;10.57;;;6.40;99.90;;;;;;5038370;28;20633;-84
2020/12/08 09:55:06;;;;;;;17.63;10.07;;;6.50;99.90;;;;;;5038014;28;20557;-84
2020/12/08 09:57:32;;;;;;;17.20;10.13;;;6.50;99.90;;;;;;5038104;28;20236;-84
2020/12/08 09:59:57;;;;;;;17.07;10.27;;;6.50;99.90;;;;;;5037743;28;20171;-83
2020/12/08 10:02:23;;;;;;;18.13;9.97;;;6.60;99.90;;;;;;5037743;28;20175;-84
2020/12/08 10:04:53;;;;;;;20.07;10.77;;;6.60;99.90;;;;;;5037613;28;20304;-84
2020/12/08 10:07:21;;;;;;;18.23;10.27;;;6.70;99.90;;;;;;5037978;28;20650;-85
2020/12/08 10:09:47;;;;;;;17.87;9.93;;;6.70;99.90;;;;;;5037251;28;20196;-84
2020/12/08 10:12:13;;;;;;;17.23;9.87;;;6.70;99.90;;;;;;5037843;28;20193;-84
2020/12/08 10:14:41;;;;;;;16.37;9.47;;;6.70;99.90;;;;;;5037648;28;20257;-84
2020/12/08 10:17:07;;;;;;;16.33;10.07;;;6.70;99.90;;;;;;5038070;28;20231;-84
2020/12/08 10:19:33;;;;;;;17.73;10.03;;;6.80;99.90;;;;;;5037864;28;20183;-85
2020/12/08 10:21:59;;;;;;;16.03;10.03;;;6.80;99.90;;;;;;5038030;28;20180;-84
2020/12/08 10:24:25;;;;;;;15.97;9.40;;;6.70;99.90;;;;;;5037664;28;20730;-84
2020/12/08 10:26:51;;;;;;;17.37;9.27;;;6.70;99.90;;;;;;5066203;28;20194;-84
2020/12/08 10:29:17;;;;;;;16.43;10.43;;;6.60;99.90;;;;;;5041313;28;20191;-86
2020/12/08 10:31:43;;;;;;;15.13;9.27;;;6.70;99.90;;;;;;5038083;28;20654;-84
2020/12/08 10:34:09;;;;;;;18.53;10.20;;;6.70;99.90;;;;;;5055279;28;20194;-84
2020/12/08 10:36:36;;;;;;;17.90;9.63;;;6.70;99.90;;;;;;5055430;28;20199;-84
2020/12/08 10:39:02;;;;;;;17.37;9.40;;;6.70;99.90;;;;;;5037964;28;20175;-83
2020/12/08 10:41:29;;;;;;;17.83;9.87;;;6.70;99.90;;;;;;5047480;28;20220;-84
2020/12/08 10:43:54;;;;;;;16.90;9.50;;;6.80;99.90;;;;;;5057611;28;20171;-83
2020/12/08 10:46:20;;;;;;;16.93;9.70;;;6.80;99.90;;;;;;5057370;28;20598;-85
2020/12/08 10:48:45;;;;;;;17.97;9.47;;;6.80;99.90;;;;;;5057960;28;20234;-85
2020/12/08 10:51:11;;;;;;;16.93;9.50;;;6.80;99.90;;;;;;5048226;28;20187;-86
2020/12/08 10:53:36;;;;;;;17.07;9.70;;;6.90;99.90;;;;;;5037605;28;20184;-86
2020/12/08 10:56:02;;;;;;;17.20;10.20;;;7.10;99.90;;;;;;5037378;28;20290;-84
2020/12/08 10:58:28;;;;;;;15.63;9.03;;;7.00;99.90;;;;;;5053442;28;20878;-86
2020/12/08 11:00:53;;;;;;;16.07;9.23;;;7.00;99.90;;;;;;5057404;28;20667;-85
2020/12/08 11:03:19;;;;;;;15.47;9.00;;;6.90;99.90;;;;;;5075067;28;20270;-83
2020/12/08 11:05:45;;;;;;;15.03;8.70;;;6.80;99.90;;;;;;5057079;28;20194;-84
2020/12/08 11:08:11;;;;;;;17.70;9.77;;;6.80;99.90;;;;;;5039752;28;20189;-82
2020/12/08 11:10:37;;;;;;;16.73;9.33;;;6.80;99.90;;;;;;5037026;28;20195;-83
2020/12/08 11:13:03;;;;;;;16.83;10.23;;;6.80;99.90;;;;;;5055023;28;20194;-84
2020/12/08 11:15:29;;;;;;;16.83;10.10;;;6.90;99.90;;;;;;5057109;28;20218;-84
2020/12/08 11:17:55;;;;;;;15.67;8.90;;;6.90;99.90;;;;;;5053160;28;20187;-83
2020/12/08 11:20:20;;;;;;;18.17;10.60;;;7.00;99.90;;;;;;5037332;28;20268;-85
2020/12/08 11:22:46;;;;;;;17.77;10.47;;;7.00;99.90;;;;;;5037357;28;20175;-84
2020/12/08 11:25:12;;;;;;;17.83;9.57;;;6.90;99.90;;;;;;5036842;28;20673;-85
2020/12/08 11:27:37;;;;;;;15.10;9.50;;;6.90;99.90;;;;;;5036854;28;20176;-85
2020/12/08 11:30:04;;;;;;;19.90;10.13;;;6.90;99.90;;;;;;5037234;28;20233;-84
2020/12/08 11:32:30;;;;;;;17.30;9.80;;;7.00;99.90;;;;;;5036408;28;20176;-85
2020/12/08 11:34:55;;;;;;;17.30;9.77;;;7.00;99.90;;;;;;5038493;28;20199;-84
2020/12/08 11:37:22;;;;;;;17.87;10.33;;;7.00;99.90;;;;;;5038595;28;20210;-85
2020/12/08 11:39:47;;;;;;;16.50;9.67;;;7.00;99.90;;;;;;5039594;28;20180;-86
2020/12/08 11:42:14;;;;;;;18.00;9.67;;;7.00;99.90;;;;;;5038556;28;20214;-85
2020/12/08 11:44:40;;;;;;;17.83;10.07;;;7.00;99.90;;;;;;5048417;28;20203;-85
2020/12/08 11:47:05;;;;;;;19.10;11.43;;;7.00;99.90;;;;;;5058373;28;20175;-85
2020/12/08 11:49:32;;;;;;;17.27;10.50;;;7.00;99.90;;;;;;5047672;28;20672;-85
2020/12/08 11:51:59;;;;;;;15.73;10.10;;;7.00;99.90;;;;;;5041015;28;20536;-84
2020/12/08 11:54:24;;;;;;;17.20;10.30;;;7.00;99.90;;;;;;5064916;28;20206;-84
2020/12/08 11:56:50;;;;;;;14.80;9.27;;;7.00;99.90;;;;;;5037266;28;20203;-83
2020/12/08 11:59:16;;;;;;;17.93;10.53;;;7.00;99.90;;;;;;5037201;28;20641;-86
2020/12/08 12:01:42;;;;;;;16.03;10.00;;;7.00;99.90;;;;;;5037212;28;20172;-85
2020/12/08 12:04:07;;;;;;;16.97;9.93;;;7.10;99.90;;;;;;5036953;28;20207;-85
2020/12/08 12:06:33;;;;;;;16.77;9.50;;;7.00;99.90;;;;;;5072398;28;20205;-85
2020/12/08 12:08:58;;;;;;;16.60;10.23;;;7.10;99.90;;;;;;5056788;28;20174;-85
2020/12/08 12:11:24;;;;;;;15.97;9.97;;;7.10;99.90;;;;;;5056031;28;20282;-87
2020/12/08 12:13:49;;;;;;;17.07;9.93;;;7.10;99.90;;;;;;5056585;28;20182;-86
2020/12/08 12:16:16;;;;;;;16.47;9.73;;;7.10;99.90;;;;;;5070681;28;20219;-86
2020/12/08 12:18:42;;;;;;;20.03;10.37;;;7.10;99.90;;;;;;5036916;28;20210;-86
2020/12/08 12:21:07;;;;;;;17.93;9.70;;;7.10;99.90;;;;;;5036929;28;20245;-85
2020/12/08 12:23:33;;;;;;;16.63;9.87;;;7.10;99.90;;;;;;5037647;28;20743;-85
2020/12/08 12:25:58;;;;;;;16.57;9.97;;;7.10;99.90;;;;;;5037181;28;20204;-85
2020/12/08 12:28:24;;;;;;;15.80;9.73;;;7.10;99.90;;;;;;5037263;28;20179;-87
2020/12/08 12:30:50;;;;;;;17.57;10.83;;;7.10;99.90;;;;;;5037257;28;20175;-87
2020/12/08 12:33:15;;;;;;;15.43;9.50;;;7.10;99.90;;;;;;5037326;28;20263;-86
2020/12/08 12:35:41;;;;;;;18.30;10.73;;;7.10;99.90;;;;;;5037448;28;20222;-85
2020/12/08 12:38:07;;;;;;;16.17;10.27;;;7.10;99.90;;;;;;5055140;28;20167;-86